sensor_id;sensor_type;location;lat;lon;timestamp;P1;durP1;ratioP1;P2;durP2;ratioP2
11618;SDS011;5865;48.776;9.280;2023-02-25T00:00:32;11.07;;;5.67;;
11618;SDS011;5865;48.776;9.280;2023-02-25T00:02:59;7.40;;;5.20;;
11618;SDS011;5865;48.776;9.280;2023-02-25T00:05:26;10.77;;;5.57;;
11618;SDS011;5865;48.776;9.280;2023-02-25T00:07:56;9.93;;;5.40;;
11618;SDS011;5865;48.776;9.280;2023-02-25T00:10:22;10.53;;;5.30;;
11618;SDS011;5865;48.776;9.280;2023-02-25T00:12:50;10.07;;;5.30;;
11618;SDS011;5865;48.776;9.280;2023-02-25T00:15:17;8.53;;;5.17;;
11618;SDS011;5865;48.776;9.280;2023-02-25T00:17:44;10.53;;;5.70;;
11618;SDS011;5865;48.776;9.280;2023-02-25T00:20:14;7.60;;;5.63;;
11618;SDS011;5865;48.776;9.280;2023-02-25T00:22:42;7.80;;;5.30;;
11618;SDS011;5865;48.776;9.280;2023-02-25T00:25:11;10.03;;;5.03;;
11618;SDS011;5865;48.776;9.280;2023-02-25T00:27:40;9.73;;;6.07;;
11618;SDS011;5865;48.776;9.280;2023-02-25T00:30:08;9.43;;;5.67;;
11618;SDS011;5865;48.776;9.280;2023-02-25T00:32:36;7.73;;;5.80;;
11618;SDS011;5865;48.776;9.280;2023-02-25T00:35:03;8.03;;;5.53;;
11618;SDS011;5865;48.776;9.280;2023-02-25T00:37:31;7.67;;;5.73;;
11618;SDS011;5865;48.776;9.280;2023-02-25T00:39:58;9.53;;;5.70;;
11618;SDS011;5865;48.776;9.280;2023-02-25T00:42:27;8.30;;;5.73;;
11618;SDS011;5865;48.776;9.280;2023-02-25T00:44:53;13.00;;;6.00;;
11618;SDS011;5865;48.776;9.280;2023-02-25T00:47:21;9.23;;;5.70;;
11618;SDS011;5865;48.776;9.280;2023-02-25T00:49:48;8.83;;;6.20;;
11618;SDS011;5865;48.776;9.280;2023-02-25T00:52:16;9.73;;;5.77;;
11618;SDS011;5865;48.776;9.280;2023-02-25T00:54:45;9.90;;;5.93;;
11618;SDS011;5865;48.776;9.280;2023-02-25T00:57:12;10.70;;;5.40;;
11618;SDS011;5865;48.776;9.280;2023-02-25T00:59:42;7.60;;;5.20;;
11618;SDS011;5865;48.776;9.280;2023-02-25T01:02:11;9.03;;;5.10;;
11618;SDS011;5865;48.776;9.280;2023-02-25T01:04:39;6.57;;;4.77;;
11618;SDS011;5865;48.776;9.280;2023-02-25T01:07:07;6.83;;;5.00;;
11618;SDS011;5865;48.776;9.280;2023-02-25T01:09:35;8.37;;;4.70;;
11618;SDS011;5865;48.776;9.280;2023-02-25T01:12:03;8.17;;;4.77;;
11618;SDS011;5865;48.776;9.280;2023-02-25T01:14:30;9.53;;;4.90;;
11618;SDS011;5865;48.776;9.280;2023-02-25T01:16:59;8.77;;;4.80;;
11618;SDS011;5865;48.776;9.280;2023-02-25T01:19:27;5.90;;;4.43;;
11618;SDS011;5865;48.776;9.280;2023-02-25T01:21:55;6.37;;;4.27;;
11618;SDS011;5865;48.776;9.280;2023-02-25T01:24:24;6.00;;;4.20;;
11618;SDS011;5865;48.776;9.280;2023-02-25T01:26:53;12.07;;;5.00;;
11618;SDS011;5865;48.776;9.280;2023-02-25T01:29:22;8.27;;;4.73;;
11618;SDS011;5865;48.776;9.280;2023-02-25T01:31:51;8.87;;;4.67;;
11618;SDS011;5865;48.776;9.280;2023-02-25T01:34:20;7.60;;;4.10;;
11618;SDS011;5865;48.776;9.280;2023-02-25T01:36:48;7.27;;;4.10;;
11618;SDS011;5865;48.776;9.280;2023-02-25T01:39:16;8.20;;;4.13;;
11618;SDS011;5865;48.776;9.280;2023-02-25T01:41:44;6.00;;;3.77;;
11618;SDS011;5865;48.776;9.280;2023-02-25T01:44:14;5.10;;;3.30;;
11618;SDS011;5865;48.776;9.280;2023-02-25T01:46:43;3.97;;;3.03;;
11618;SDS011;5865;48.776;9.280;2023-02-25T01:49:13;5.97;;;3.27;;
11618;SDS011;5865;48.776;9.280;2023-02-25T01:51:45;5.00;;;3.50;;
11618;SDS011;5865;48.776;9.280;2023-02-25T01:54:15;5.97;;;3.77;;
11618;SDS011;5865;48.776;9.280;2023-02-25T01:56:43;4.70;;;3.20;;
11618;SDS011;5865;48.776;9.280;2023-02-25T01:59:13;4.03;;;2.90;;
11618;SDS011;5865;48.776;9.280;2023-02-25T02:01:42;5.40;;;3.20;;
11618;SDS011;5865;48.776;9.280;2023-02-25T02:04:09;5.60;;;3.17;;
11618;SDS011;5865;48.776;9.280;2023-02-25T02:06:40;5.43;;;3.43;;
11618;SDS011;5865;48.776;9.280;2023-02-25T02:09:10;6.13;;;3.20;;
11618;SDS011;5865;48.776;9.280;2023-02-25T02:11:39;4.23;;;2.93;;
11618;SDS011;5865;48.776;9.280;2023-02-25T02:14:10;4.93;;;3.20;;
11618;SDS011;5865;48.776;9.280;2023-02-25T02:16:52;4.00;;;2.87;;
11618;SDS011;5865;48.776;9.280;2023-02-25T02:19:33;3.97;;;2.77;;
11618;SDS011;5865;48.776;9.280;2023-02-25T02:22:25;6.37;;;2.83;;
11618;SDS011;5865;48.776;9.280;2023-02-25T02:25:10;5.13;;;2.40;;
11618;SDS011;5865;48.776;9.280;2023-02-25T02:28:06;4.50;;;2.60;;
11618;SDS011;5865;48.776;9.280;2023-02-25T02:33:53;3.27;;;2.17;;
11618;SDS011;5865;48.776;9.280;2023-02-25T02:36:34;4.53;;;2.37;;
11618;SDS011;5865;48.776;9.280;2023-02-25T02:39:10;4.33;;;2.10;;
11618;SDS011;5865;48.776;9.280;2023-02-25T02:41:47;4.80;;;2.43;;
11618;SDS011;5865;48.776;9.280;2023-02-25T02:44:23;3.00;;;2.13;;
11618;SDS011;5865;48.776;9.280;2023-02-25T02:46:56;4.27;;;2.17;;
11618;SDS011;5865;48.776;9.280;2023-02-25T02:49:30;4.13;;;2.40;;
11618;SDS011;5865;48.776;9.280;2023-02-25T02:52:04;3.70;;;2.30;;
11618;SDS011;5865;48.776;9.280;2023-02-25T02:54:39;2.97;;;2.27;;
11618;SDS011;5865;48.776;9.280;2023-02-25T02:57:10;3.60;;;2.60;;
11618;SDS011;5865;48.776;9.280;2023-02-25T02:59:40;3.13;;;2.50;;
11618;SDS011;5865;48.776;9.280;2023-02-25T03:02:13;5.83;;;2.53;;
11618;SDS011;5865;48.776;9.280;2023-02-25T03:04:45;2.80;;;2.37;;
11618;SDS011;5865;48.776;9.280;2023-02-25T03:07:15;3.77;;;2.30;;
11618;SDS011;5865;48.776;9.280;2023-02-25T03:09:45;3.80;;;2.57;;
11618;SDS011;5865;48.776;9.280;2023-02-25T03:12:15;5.23;;;2.20;;
11618;SDS011;5865;48.776;9.280;2023-02-25T03:14:42;5.47;;;2.30;;
11618;SDS011;5865;48.776;9.280;2023-02-25T03:17:10;5.00;;;2.37;;
11618;SDS011;5865;48.776;9.280;2023-02-25T03:19:41;5.57;;;2.70;;
11618;SDS011;5865;48.776;9.280;2023-02-25T03:22:14;5.93;;;2.73;;
11618;SDS011;5865;48.776;9.280;2023-02-25T03:24:45;4.27;;;2.50;;
11618;SDS011;5865;48.776;9.280;2023-02-25T03:27:21;5.33;;;2.40;;
11618;SDS011;5865;48.776;9.280;2023-02-25T03:29:54;4.17;;;2.70;;
11618;SDS011;5865;48.776;9.280;2023-02-25T03:32:27;5.10;;;2.50;;
11618;SDS011;5865;48.776;9.280;2023-02-25T03:34:58;4.20;;;2.57;;
11618;SDS011;5865;48.776;9.280;2023-02-25T03:37:27;5.00;;;2.50;;
11618;SDS011;5865;48.776;9.280;2023-02-25T03:39:58;4.70;;;2.90;;
11618;SDS011;5865;48.776;9.280;2023-02-25T03:42:35;4.23;;;2.50;;
11618;SDS011;5865;48.776;9.280;2023-02-25T03:45:07;3.40;;;2.40;;
11618;SDS011;5865;48.776;9.280;2023-02-25T03:47:38;4.27;;;2.50;;
11618;SDS011;5865;48.776;9.280;2023-02-25T03:50:09;4.47;;;2.40;;
11618;SDS011;5865;48.776;9.280;2023-02-25T03:52:41;4.40;;;2.30;;
11618;SDS011;5865;48.776;9.280;2023-02-25T03:55:23;4.17;;;2.40;;
11618;SDS011;5865;48.776;9.280;2023-02-25T03:57:50;3.83;;;2.30;;
11618;SDS011;5865;48.776;9.280;2023-02-25T04:00:19;4.10;;;2.30;;
11618;SDS011;5865;48.776;9.280;2023-02-25T04:02:48;3.60;;;2.20;;
11618;SDS011;5865;48.776;9.280;2023-02-25T04:05:18;6.37;;;2.50;;
11618;SDS011;5865;48.776;9.280;2023-02-25T04:07:47;4.07;;;2.60;;
11618;SDS011;5865;48.776;9.280;2023-02-25T04:10:16;7.90;;;2.27;;
11618;SDS011;5865;48.776;9.280;2023-02-25T04:12:43;4.77;;;1.90;;
11618;SDS011;5865;48.776;9.280;2023-02-25T04:15:11;6.87;;;2.37;;
11618;SDS011;5865;48.776;9.280;2023-02-25T04:17:39;5.57;;;2.20;;
11618;SDS011;5865;48.776;9.280;2023-02-25T04:20:07;4.43;;;1.90;;
11618;SDS011;5865;48.776;9.280;2023-02-25T04:22:36;6.17;;;1.90;;
11618;SDS011;5865;48.776;9.280;2023-02-25T04:25:03;2.77;;;1.63;;
11618;SDS011;5865;48.776;9.280;2023-02-25T04:27:32;4.03;;;1.47;;
11618;SDS011;5865;48.776;9.280;2023-02-25T04:29:59;2.40;;;1.57;;
11618;SDS011;5865;48.776;9.280;2023-02-25T04:32:26;3.70;;;1.40;;
11618;SDS011;5865;48.776;9.280;2023-02-25T04:35:32;4.37;;;1.83;;
11618;SDS011;5865;48.776;9.280;2023-02-25T04:38:00;5.03;;;1.60;;
11618;SDS011;5865;48.776;9.280;2023-02-25T04:40:27;2.10;;;1.30;;
11618;SDS011;5865;48.776;9.280;2023-02-25T04:42:54;4.17;;;1.60;;
11618;SDS011;5865;48.776;9.280;2023-02-25T04:45:22;2.97;;;1.30;;
11618;SDS011;5865;48.776;9.280;2023-02-25T04:47:50;6.57;;;2.03;;
11618;SDS011;5865;48.776;9.280;2023-02-25T04:50:19;6.97;;;1.50;;
11618;SDS011;5865;48.776;9.280;2023-02-25T04:52:47;3.00;;;1.40;;
11618;SDS011;5865;48.776;9.280;2023-02-25T04:55:16;4.10;;;1.23;;
11618;SDS011;5865;48.776;9.280;2023-02-25T04:57:44;3.27;;;1.70;;
11618;SDS011;5865;48.776;9.280;2023-02-25T05:00:13;4.40;;;1.43;;
11618;SDS011;5865;48.776;9.280;2023-02-25T05:02:43;2.73;;;1.40;;
11618;SDS011;5865;48.776;9.280;2023-02-25T05:05:11;4.13;;;1.40;;
11618;SDS011;5865;48.776;9.280;2023-02-25T05:07:39;3.87;;;1.60;;
11618;SDS011;5865;48.776;9.280;2023-02-25T05:10:07;2.53;;;1.40;;
11618;SDS011;5865;48.776;9.280;2023-02-25T05:12:37;1.87;;;1.40;;
11618;SDS011;5865;48.776;9.280;2023-02-25T05:15:05;3.17;;;1.40;;
11618;SDS011;5865;48.776;9.280;2023-02-25T05:17:36;4.43;;;1.50;;
11618;SDS011;5865;48.776;9.280;2023-02-25T05:20:04;6.33;;;1.50;;
11618;SDS011;5865;48.776;9.280;2023-02-25T05:22:35;6.23;;;1.67;;
11618;SDS011;5865;48.776;9.280;2023-02-25T05:25:04;3.23;;;1.67;;
11618;SDS011;5865;48.776;9.280;2023-02-25T05:27:31;4.00;;;1.40;;
11618;SDS011;5865;48.776;9.280;2023-02-25T05:30:00;4.57;;;1.43;;
11618;SDS011;5865;48.776;9.280;2023-02-25T05:32:28;5.37;;;1.50;;
11618;SDS011;5865;48.776;9.280;2023-02-25T05:34:56;2.63;;;1.30;;
11618;SDS011;5865;48.776;9.280;2023-02-25T05:37:24;3.23;;;1.13;;
11618;SDS011;5865;48.776;9.280;2023-02-25T05:39:52;3.20;;;1.30;;
11618;SDS011;5865;48.776;9.280;2023-02-25T05:42:20;4.87;;;1.17;;
11618;SDS011;5865;48.776;9.280;2023-02-25T05:44:47;2.63;;;1.30;;
11618;SDS011;5865;48.776;9.280;2023-02-25T05:47:18;2.80;;;1.00;;
11618;SDS011;5865;48.776;9.280;2023-02-25T05:49:45;2.23;;;1.10;;
11618;SDS011;5865;48.776;9.280;2023-02-25T05:52:15;4.07;;;1.30;;
11618;SDS011;5865;48.776;9.280;2023-02-25T05:54:43;1.30;;;0.83;;
11618;SDS011;5865;48.776;9.280;2023-02-25T05:57:10;2.37;;;1.10;;
11618;SDS011;5865;48.776;9.280;2023-02-25T05:59:37;2.17;;;1.07;;
11618;SDS011;5865;48.776;9.280;2023-02-25T06:02:04;6.87;;;1.60;;
11618;SDS011;5865;48.776;9.280;2023-02-25T06:04:32;3.87;;;1.30;;
11618;SDS011;5865;48.776;9.280;2023-02-25T06:06:59;3.40;;;0.90;;
11618;SDS011;5865;48.776;9.280;2023-02-25T06:09:27;6.37;;;1.17;;
11618;SDS011;5865;48.776;9.280;2023-02-25T06:11:54;4.20;;;1.40;;
11618;SDS011;5865;48.776;9.280;2023-02-25T06:14:21;2.80;;;1.30;;
11618;SDS011;5865;48.776;9.280;2023-02-25T06:16:48;2.93;;;1.20;;
11618;SDS011;5865;48.776;9.280;2023-02-25T06:19:15;2.57;;;1.27;;
11618;SDS011;5865;48.776;9.280;2023-02-25T06:21:44;1.87;;;1.23;;
11618;SDS011;5865;48.776;9.280;2023-02-25T06:24:11;2.50;;;1.10;;
11618;SDS011;5865;48.776;9.280;2023-02-25T06:26:39;2.57;;;0.90;;
11618;SDS011;5865;48.776;9.280;2023-02-25T06:29:07;3.23;;;1.10;;
11618;SDS011;5865;48.776;9.280;2023-02-25T06:31:35;1.50;;;0.93;;
11618;SDS011;5865;48.776;9.280;2023-02-25T06:34:02;3.03;;;1.03;;
11618;SDS011;5865;48.776;9.280;2023-02-25T06:36:29;3.37;;;1.00;;
11618;SDS011;5865;48.776;9.280;2023-02-25T06:38:59;2.77;;;1.20;;
11618;SDS011;5865;48.776;9.280;2023-02-25T06:41:27;4.77;;;1.77;;
11618;SDS011;5865;48.776;9.280;2023-02-25T06:43:54;3.30;;;1.00;;
11618;SDS011;5865;48.776;9.280;2023-02-25T06:46:21;5.97;;;1.37;;
11618;SDS011;5865;48.776;9.280;2023-02-25T06:48:49;2.13;;;0.90;;
11618;SDS011;5865;48.776;9.280;2023-02-25T06:51:16;5.27;;;1.20;;
11618;SDS011;5865;48.776;9.280;2023-02-25T06:53:44;4.00;;;1.20;;
11618;SDS011;5865;48.776;9.280;2023-02-25T06:56:14;4.30;;;1.20;;
11618;SDS011;5865;48.776;9.280;2023-02-25T06:58:44;1.80;;;1.00;;
11618;SDS011;5865;48.776;9.280;2023-02-25T07:01:12;2.30;;;0.90;;
11618;SDS011;5865;48.776;9.280;2023-02-25T07:03:41;3.30;;;1.27;;
11618;SDS011;5865;48.776;9.280;2023-02-25T07:06:08;2.10;;;1.10;;
11618;SDS011;5865;48.776;9.280;2023-02-25T07:08:35;2.73;;;1.13;;
11618;SDS011;5865;48.776;9.280;2023-02-25T07:11:12;1.97;;;0.90;;
11618;SDS011;5865;48.776;9.280;2023-02-25T07:13:53;2.33;;;0.93;;
11618;SDS011;5865;48.776;9.280;2023-02-25T07:16:20;2.87;;;1.13;;
11618;SDS011;5865;48.776;9.280;2023-02-25T07:18:47;3.07;;;1.27;;
11618;SDS011;5865;48.776;9.280;2023-02-25T07:21:16;3.20;;;0.97;;
11618;SDS011;5865;48.776;9.280;2023-02-25T07:23:44;3.23;;;1.20;;
11618;SDS011;5865;48.776;9.280;2023-02-25T07:26:12;4.50;;;1.10;;
11618;SDS011;5865;48.776;9.280;2023-02-25T07:28:42;3.60;;;1.17;;
11618;SDS011;5865;48.776;9.280;2023-02-25T07:31:10;2.83;;;1.10;;
11618;SDS011;5865;48.776;9.280;2023-02-25T07:33:38;3.60;;;1.20;;
11618;SDS011;5865;48.776;9.280;2023-02-25T07:36:05;2.53;;;1.23;;
11618;SDS011;5865;48.776;9.280;2023-02-25T07:38:32;2.70;;;1.00;;
11618;SDS011;5865;48.776;9.280;2023-02-25T07:41:02;4.20;;;1.23;;
11618;SDS011;5865;48.776;9.280;2023-02-25T07:43:30;3.13;;;1.10;;
11618;SDS011;5865;48.776;9.280;2023-02-25T07:45:58;3.13;;;1.10;;
11618;SDS011;5865;48.776;9.280;2023-02-25T07:48:25;1.43;;;0.83;;
11618;SDS011;5865;48.776;9.280;2023-02-25T07:50:53;3.13;;;1.13;;
11618;SDS011;5865;48.776;9.280;2023-02-25T07:53:20;4.00;;;1.03;;
11618;SDS011;5865;48.776;9.280;2023-02-25T07:55:47;3.00;;;1.20;;
11618;SDS011;5865;48.776;9.280;2023-02-25T07:58:15;3.03;;;1.20;;
11618;SDS011;5865;48.776;9.280;2023-02-25T08:03:26;3.53;;;1.10;;
11618;SDS011;5865;48.776;9.280;2023-02-25T08:06:07;3.37;;;1.33;;
11618;SDS011;5865;48.776;9.280;2023-02-25T08:08:35;4.33;;;1.50;;
11618;SDS011;5865;48.776;9.280;2023-02-25T08:11:17;2.97;;;1.10;;
11618;SDS011;5865;48.776;9.280;2023-02-25T08:13:58;5.03;;;1.30;;
11618;SDS011;5865;48.776;9.280;2023-02-25T08:16:40;2.17;;;0.97;;
11618;SDS011;5865;48.776;9.280;2023-02-25T08:22:27;1.80;;;1.20;;
11618;SDS011;5865;48.776;9.280;2023-02-25T08:25:08;2.47;;;1.17;;
11618;SDS011;5865;48.776;9.280;2023-02-25T08:27:49;2.57;;;1.37;;
11618;SDS011;5865;48.776;9.280;2023-02-25T08:30:32;1.73;;;1.00;;
11618;SDS011;5865;48.776;9.280;2023-02-25T08:33:15;2.13;;;1.30;;
11618;SDS011;5865;48.776;9.280;2023-02-25T10:13:40;3.03;;;1.20;;
11618;SDS011;5865;48.776;9.280;2023-02-25T10:16:28;1.73;;;1.00;;
11618;SDS011;5865;48.776;9.280;2023-02-25T10:19:16;1.30;;;0.70;;
11618;SDS011;5865;48.776;9.280;2023-02-25T10:22:04;1.87;;;0.70;;
11618;SDS011;5865;48.776;9.280;2023-02-25T10:24:48;2.60;;;1.80;;
11618;SDS011;5865;48.776;9.280;2023-02-25T10:27:31;2.97;;;0.90;;
11618;SDS011;5865;48.776;9.280;2023-02-25T10:45:07;6.00;;;5.40;;
11618;SDS011;5865;48.776;9.280;2023-02-25T10:47:50;1.57;;;0.70;;
11618;SDS011;5865;48.776;9.280;2023-02-25T10:50:34;1.63;;;1.03;;
11618;SDS011;5865;48.776;9.280;2023-02-25T10:53:16;3.00;;;0.83;;
11618;SDS011;5865;48.776;9.280;2023-02-25T10:56:11;1.40;;;0.90;;
11618;SDS011;5865;48.776;9.280;2023-02-25T10:59:19;0.60;;;0.60;;
11618;SDS011;5865;48.776;9.280;2023-02-25T13:24:43;3.23;;;1.50;;
11618;SDS011;5865;48.776;9.280;2023-02-25T13:27:22;6.80;;;1.60;;
11618;SDS011;5865;48.776;9.280;2023-02-25T13:30:17;4.57;;;2.43;;
11618;SDS011;5865;48.776;9.280;2023-02-25T13:32:48;4.53;;;1.50;;
11618;SDS011;5865;48.776;9.280;2023-02-25T13:35:33;5.30;;;1.13;;
11618;SDS011;5865;48.776;9.280;2023-02-25T13:38:12;5.13;;;1.90;;
11618;SDS011;5865;48.776;9.280;2023-02-25T13:41:01;3.87;;;1.43;;
11618;SDS011;5865;48.776;9.280;2023-02-25T13:43:50;4.80;;;1.50;;
11618;SDS011;5865;48.776;9.280;2023-02-25T13:46:35;2.97;;;1.80;;
11618;SDS011;5865;48.776;9.280;2023-02-25T13:49:19;3.70;;;1.50;;
11618;SDS011;5865;48.776;9.280;2023-02-25T13:52:01;2.17;;;1.10;;
11618;SDS011;5865;48.776;9.280;2023-02-25T13:57:49;3.07;;;1.37;;
11618;SDS011;5865;48.776;9.280;2023-02-25T14:05:57;5.13;;;1.50;;
11618;SDS011;5865;48.776;9.280;2023-02-25T14:08:36;2.33;;;1.00;;
11618;SDS011;5865;48.776;9.280;2023-02-25T14:11:26;2.60;;;1.20;;
11618;SDS011;5865;48.776;9.280;2023-02-25T14:19:50;2.80;;;1.20;;
11618;SDS011;5865;48.776;9.280;2023-02-25T14:22:35;2.50;;;1.20;;
11618;SDS011;5865;48.776;9.280;2023-02-25T14:25:19;5.97;;;1.50;;
11618;SDS011;5865;48.776;9.280;2023-02-25T14:28:02;3.23;;;1.33;;
11618;SDS011;5865;48.776;9.280;2023-02-25T14:30:40;2.93;;;1.37;;
11618;SDS011;5865;48.776;9.280;2023-02-25T14:33:24;2.73;;;1.30;;
11618;SDS011;5865;48.776;9.280;2023-02-25T14:36:05;4.63;;;1.53;;
11618;SDS011;5865;48.776;9.280;2023-02-25T14:38:51;3.40;;;1.40;;
11618;SDS011;5865;48.776;9.280;2023-02-25T14:41:51;3.00;;;1.50;;
11618;SDS011;5865;48.776;9.280;2023-02-25T14:44:28;3.03;;;1.40;;
11618;SDS011;5865;48.776;9.280;2023-02-25T14:47:04;3.10;;;1.40;;
11618;SDS011;5865;48.776;9.280;2023-02-25T14:49:37;5.07;;;1.63;;
11618;SDS011;5865;48.776;9.280;2023-02-25T14:55:19;2.60;;;1.40;;
11618;SDS011;5865;48.776;9.280;2023-02-25T14:58:21;2.67;;;1.40;;
11618;SDS011;5865;48.776;9.280;2023-02-25T15:01:16;2.67;;;1.47;;
11618;SDS011;5865;48.776;9.280;2023-02-25T15:03:55;2.60;;;1.20;;
11618;SDS011;5865;48.776;9.280;2023-02-25T15:06:50;3.17;;;1.10;;
11618;SDS011;5865;48.776;9.280;2023-02-25T15:09:31;4.53;;;1.30;;
11618;SDS011;5865;48.776;9.280;2023-02-25T15:12:20;4.83;;;1.50;;
11618;SDS011;5865;48.776;9.280;2023-02-25T15:15:14;2.93;;;1.27;;
11618;SDS011;5865;48.776;9.280;2023-02-25T15:18:01;3.13;;;1.20;;
11618;SDS011;5865;48.776;9.280;2023-02-25T15:20:55;4.17;;;1.40;;
11618;SDS011;5865;48.776;9.280;2023-02-25T15:23:40;3.47;;;1.33;;
11618;SDS011;5865;48.776;9.280;2023-02-25T15:26:17;2.67;;;1.50;;
11618;SDS011;5865;48.776;9.280;2023-02-25T15:28:48;5.13;;;1.70;;
11618;SDS011;5865;48.776;9.280;2023-02-25T15:37:19;1.87;;;1.20;;
11618;SDS011;5865;48.776;9.280;2023-02-25T15:46:29;7.70;;;2.10;;
11618;SDS011;5865;48.776;9.280;2023-02-25T15:49:08;4.57;;;1.57;;
11618;SDS011;5865;48.776;9.280;2023-02-25T15:51:57;4.30;;;1.30;;
11618;SDS011;5865;48.776;9.280;2023-02-25T15:57:38;3.30;;;1.43;;
11618;SDS011;5865;48.776;9.280;2023-02-25T16:06:09;3.83;;;1.80;;
11618;SDS011;5865;48.776;9.280;2023-02-25T16:08:40;13.63;;;7.87;;
11618;SDS011;5865;48.776;9.280;2023-02-25T16:11:17;4.37;;;2.40;;
11618;SDS011;5865;48.776;9.280;2023-02-25T16:13:46;5.70;;;2.57;;
11618;SDS011;5865;48.776;9.280;2023-02-25T16:16:14;4.93;;;2.80;;
11618;SDS011;5865;48.776;9.280;2023-02-25T16:18:43;5.27;;;1.97;;
11618;SDS011;5865;48.776;9.280;2023-02-25T16:21:17;3.77;;;2.10;;
11618;SDS011;5865;48.776;9.280;2023-02-25T16:23:48;3.13;;;1.70;;
11618;SDS011;5865;48.776;9.280;2023-02-25T16:26:21;2.93;;;1.67;;
11618;SDS011;5865;48.776;9.280;2023-02-25T16:28:59;4.10;;;1.97;;
11618;SDS011;5865;48.776;9.280;2023-02-25T16:31:36;4.97;;;2.33;;
11618;SDS011;5865;48.776;9.280;2023-02-25T16:34:10;5.77;;;2.73;;
11618;SDS011;5865;48.776;9.280;2023-02-25T16:36:44;5.00;;;3.10;;
11618;SDS011;5865;48.776;9.280;2023-02-25T16:39:18;4.50;;;2.30;;
11618;SDS011;5865;48.776;9.280;2023-02-25T16:41:49;5.70;;;2.60;;
11618;SDS011;5865;48.776;9.280;2023-02-25T16:44:17;7.77;;;3.17;;
11618;SDS011;5865;48.776;9.280;2023-02-25T16:46:47;9.57;;;2.00;;
11618;SDS011;5865;48.776;9.280;2023-02-25T16:49:18;12.30;;;5.50;;
11618;SDS011;5865;48.776;9.280;2023-02-25T16:51:46;4.70;;;2.60;;
11618;SDS011;5865;48.776;9.280;2023-02-25T16:54:16;7.30;;;4.43;;
11618;SDS011;5865;48.776;9.280;2023-02-25T16:56:51;7.40;;;3.60;;
11618;SDS011;5865;48.776;9.280;2023-02-25T16:59:21;7.13;;;2.73;;
11618;SDS011;5865;48.776;9.280;2023-02-25T17:01:53;10.30;;;3.10;;
11618;SDS011;5865;48.776;9.280;2023-02-25T17:04:23;7.50;;;2.40;;
11618;SDS011;5865;48.776;9.280;2023-02-25T17:07:06;3.80;;;1.63;;
11618;SDS011;5865;48.776;9.280;2023-02-25T17:09:34;3.43;;;1.57;;
11618;SDS011;5865;48.776;9.280;2023-02-25T17:12:04;5.43;;;1.80;;
11618;SDS011;5865;48.776;9.280;2023-02-25T17:14:31;4.30;;;2.10;;
11618;SDS011;5865;48.776;9.280;2023-02-25T17:16:58;4.00;;;1.80;;
11618;SDS011;5865;48.776;9.280;2023-02-25T17:19:25;4.97;;;2.27;;
11618;SDS011;5865;48.776;9.280;2023-02-25T17:21:54;5.43;;;1.90;;
11618;SDS011;5865;48.776;9.280;2023-02-25T17:24:23;6.30;;;2.70;;
11618;SDS011;5865;48.776;9.280;2023-02-25T17:26:54;5.57;;;2.03;;
11618;SDS011;5865;48.776;9.280;2023-02-25T17:29:30;4.57;;;3.17;;
11618;SDS011;5865;48.776;9.280;2023-02-25T17:32:00;12.90;;;7.00;;
11618;SDS011;5865;48.776;9.280;2023-02-25T17:34:38;8.03;;;3.40;;
11618;SDS011;5865;48.776;9.280;2023-02-25T17:37:06;4.43;;;1.90;;
11618;SDS011;5865;48.776;9.280;2023-02-25T17:39:36;3.93;;;1.20;;
11618;SDS011;5865;48.776;9.280;2023-02-25T17:42:12;2.00;;;1.37;;
11618;SDS011;5865;48.776;9.280;2023-02-25T17:44:52;2.30;;;1.27;;
11618;SDS011;5865;48.776;9.280;2023-02-25T17:47:20;1.97;;;1.10;;
11618;SDS011;5865;48.776;9.280;2023-02-25T17:49:51;2.63;;;1.40;;
11618;SDS011;5865;48.776;9.280;2023-02-25T17:52:20;2.40;;;1.37;;
11618;SDS011;5865;48.776;9.280;2023-02-25T17:54:50;1.40;;;1.30;;
11618;SDS011;5865;48.776;9.280;2023-02-25T17:57:23;2.63;;;1.40;;
11618;SDS011;5865;48.776;9.280;2023-02-25T17:59:55;3.33;;;1.70;;
11618;SDS011;5865;48.776;9.280;2023-02-25T18:02:28;4.43;;;1.73;;
11618;SDS011;5865;48.776;9.280;2023-02-25T18:05:13;2.60;;;1.60;;
11618;SDS011;5865;48.776;9.280;2023-02-25T18:07:57;2.60;;;1.83;;
11618;SDS011;5865;48.776;9.280;2023-02-25T18:10:42;3.67;;;1.57;;
11618;SDS011;5865;48.776;9.280;2023-02-25T18:13:15;4.27;;;2.53;;
11618;SDS011;5865;48.776;9.280;2023-02-25T18:15:54;3.93;;;2.57;;
11618;SDS011;5865;48.776;9.280;2023-02-25T18:18:36;3.80;;;1.90;;
11618;SDS011;5865;48.776;9.280;2023-02-25T18:21:03;3.10;;;1.70;;
11618;SDS011;5865;48.776;9.280;2023-02-25T18:23:32;3.13;;;2.10;;
11618;SDS011;5865;48.776;9.280;2023-02-25T18:26:10;1.87;;;1.50;;
11618;SDS011;5865;48.776;9.280;2023-02-25T18:28:41;3.50;;;1.80;;
11618;SDS011;5865;48.776;9.280;2023-02-25T18:31:11;3.20;;;1.70;;
11618;SDS011;5865;48.776;9.280;2023-02-25T18:33:39;2.97;;;1.97;;
11618;SDS011;5865;48.776;9.280;2023-02-25T18:36:07;3.30;;;2.50;;
11618;SDS011;5865;48.776;9.280;2023-02-25T18:38:36;3.50;;;2.20;;
11618;SDS011;5865;48.776;9.280;2023-02-25T18:41:05;4.90;;;2.30;;
11618;SDS011;5865;48.776;9.280;2023-02-25T18:43:36;2.63;;;1.90;;
11618;SDS011;5865;48.776;9.280;2023-02-25T18:46:06;4.07;;;2.27;;
11618;SDS011;5865;48.776;9.280;2023-02-25T18:48:51;3.13;;;2.40;;
11618;SDS011;5865;48.776;9.280;2023-02-25T18:51:20;3.53;;;2.47;;
11618;SDS011;5865;48.776;9.280;2023-02-25T18:53:51;4.43;;;2.93;;
11618;SDS011;5865;48.776;9.280;2023-02-25T18:56:23;4.60;;;2.93;;
11618;SDS011;5865;48.776;9.280;2023-02-25T18:58:51;4.37;;;2.80;;
11618;SDS011;5865;48.776;9.280;2023-02-25T19:01:22;7.00;;;3.63;;
11618;SDS011;5865;48.776;9.280;2023-02-25T19:04:01;9.03;;;5.63;;
11618;SDS011;5865;48.776;9.280;2023-02-25T19:06:33;8.23;;;5.20;;
11618;SDS011;5865;48.776;9.280;2023-02-25T19:09:02;5.50;;;3.43;;
11618;SDS011;5865;48.776;9.280;2023-02-25T19:11:31;8.33;;;4.60;;
11618;SDS011;5865;48.776;9.280;2023-02-25T19:14:01;6.40;;;5.13;;
11618;SDS011;5865;48.776;9.280;2023-02-25T19:16:32;7.67;;;5.70;;
11618;SDS011;5865;48.776;9.280;2023-02-25T19:19:05;7.00;;;4.37;;
11618;SDS011;5865;48.776;9.280;2023-02-25T19:21:34;7.57;;;4.63;;
11618;SDS011;5865;48.776;9.280;2023-02-25T19:24:15;7.27;;;4.60;;
11618;SDS011;5865;48.776;9.280;2023-02-25T19:26:43;7.83;;;4.40;;
11618;SDS011;5865;48.776;9.280;2023-02-25T19:29:15;7.90;;;4.40;;
11618;SDS011;5865;48.776;9.280;2023-02-25T19:31:46;6.77;;;4.70;;
11618;SDS011;5865;48.776;9.280;2023-02-25T19:34:16;8.20;;;6.00;;
11618;SDS011;5865;48.776;9.280;2023-02-25T19:36:46;8.13;;;5.23;;
11618;SDS011;5865;48.776;9.280;2023-02-25T19:39:14;8.53;;;5.37;;
11618;SDS011;5865;48.776;9.280;2023-02-25T19:41:42;7.13;;;5.17;;
11618;SDS011;5865;48.776;9.280;2023-02-25T19:44:09;8.07;;;5.17;;
11618;SDS011;5865;48.776;9.280;2023-02-25T19:46:37;8.13;;;5.60;;
11618;SDS011;5865;48.776;9.280;2023-02-25T19:49:04;7.40;;;5.40;;
11618;SDS011;5865;48.776;9.280;2023-02-25T19:51:33;8.77;;;5.87;;
11618;SDS011;5865;48.776;9.280;2023-02-25T19:54:01;9.17;;;5.90;;
11618;SDS011;5865;48.776;9.280;2023-02-25T19:56:31;10.00;;;6.20;;
11618;SDS011;5865;48.776;9.280;2023-02-25T19:59:03;10.80;;;6.10;;
11618;SDS011;5865;48.776;9.280;2023-02-25T20:01:33;9.20;;;6.20;;
11618;SDS011;5865;48.776;9.280;2023-02-25T20:04:00;11.17;;;6.40;;
11618;SDS011;5865;48.776;9.280;2023-02-25T20:06:28;10.80;;;6.60;;
11618;SDS011;5865;48.776;9.280;2023-02-25T20:09:00;11.93;;;6.80;;
11618;SDS011;5865;48.776;9.280;2023-02-25T20:11:31;10.87;;;7.13;;
11618;SDS011;5865;48.776;9.280;2023-02-25T20:13:58;14.33;;;8.40;;
11618;SDS011;5865;48.776;9.280;2023-02-25T20:16:26;13.97;;;8.57;;
11618;SDS011;5865;48.776;9.280;2023-02-25T20:19:01;13.90;;;8.47;;
11618;SDS011;5865;48.776;9.280;2023-02-25T20:21:29;10.87;;;7.63;;
11618;SDS011;5865;48.776;9.280;2023-02-25T20:23:58;14.33;;;8.40;;
11618;SDS011;5865;48.776;9.280;2023-02-25T20:26:27;11.63;;;7.70;;
11618;SDS011;5865;48.776;9.280;2023-02-25T20:28:56;14.47;;;8.50;;
11618;SDS011;5865;48.776;9.280;2023-02-25T20:31:24;12.73;;;7.23;;
11618;SDS011;5865;48.776;9.280;2023-02-25T20:33:52;11.03;;;7.33;;
11618;SDS011;5865;48.776;9.280;2023-02-25T20:36:21;10.27;;;6.63;;